createdAt,value
2019-01-19T00:01:38.139Z,77.50
2019-01-19T00:04:51.686Z,77.60
2019-01-19T00:08:05.476Z,77.30
2019-01-19T00:11:01.889Z,77.30
2019-01-19T00:13:43.614Z,77.30
2019-01-19T00:16:37.440Z,78.20
2019-01-19T00:19:58.236Z,78.10
2019-01-19T00:22:50.064Z,78.20
2019-01-19T00:25:59.285Z,78.40
2019-01-19T00:28:43.203Z,78.60
2019-01-19T00:31:38.774Z,78.70
2019-01-19T00:34:37.340Z,78.50
2019-01-19T00:37:27.554Z,78.40
2019-01-19T00:40:34.121Z,78.50
2019-01-19T00:43:32.353Z,78.80
2019-01-19T00:46:53.222Z,78.60
2019-01-19T00:49:32.759Z,78.60
2019-01-19T00:52:26.874Z,78.80
2019-01-19T00:55:50.733Z,79.00
2019-01-19T00:58:52.733Z,79.10
2019-01-19T01:02:07.592Z,79.00
2019-01-19T01:04:57.679Z,78.80
2019-01-19T01:08:15.750Z,78.70
2019-01-19T01:10:51.639Z,78.80
2019-01-19T01:14:14.314Z,79.10
2019-01-19T01:17:09.206Z,79.10
2019-01-19T01:20:11.972Z,79.20
2019-01-19T01:23:12.872Z,79.20
2019-01-19T01:26:35.137Z,79.30
2019-01-19T01:29:45.517Z,79.40
2019-01-19T01:32:57.268Z,79.40
2019-01-19T01:35:57.028Z,79.40
2019-01-19T01:39:15.237Z,79.40
2019-01-19T01:42:15.800Z,79.40
2019-01-19T01:45:12.532Z,79.50
2019-01-19T01:48:23.231Z,79.70
2019-01-19T01:51:14.635Z,79.70
2019-01-19T01:54:32.336Z,79.80
2019-01-19T01:57:10.911Z,80.60
2019-01-19T02:00:29.126Z,79.90
2019-01-19T02:03:36.677Z,79.90
2019-01-19T02:06:39.075Z,80.10
2019-01-19T02:09:56.381Z,80.20
2019-01-19T02:13:09.761Z,80.20
2019-01-19T02:15:59.042Z,80.90
2019-01-19T02:19:15.271Z,80.40
2019-01-19T02:22:25.675Z,80.50
2019-01-19T02:25:33.528Z,80.00
2019-01-19T02:29:09.392Z,80.80
2019-01-19T02:32:15.039Z,80.80
2019-01-19T02:35:32.032Z,81.00
2019-01-19T02:38:36.872Z,80.80
2019-01-19T02:41:42.708Z,81.10
2019-01-19T02:44:29.649Z,81.10
2019-01-19T02:47:40.302Z,81.00
2019-01-19T02:50:35.665Z,81.00
2019-01-19T02:53:51.828Z,81.00
2019-01-19T02:56:52.610Z,81.10
2019-01-19T02:59:39.749Z,81.20
2019-01-19T03:02:44.840Z,81.40
2019-01-19T03:05:46.963Z,81.50
2019-01-19T03:09:04.858Z,81.40
2019-01-19T03:12:21.707Z,81.50
2019-01-19T03:15:46.545Z,81.40
2019-01-19T03:18:36.882Z,82.00
2019-01-19T03:21:55.656Z,82.20
2019-01-19T03:25:16.962Z,82.10
2019-01-19T03:28:22.362Z,82.00
2019-01-19T03:31:52.269Z,81.90
2019-01-19T03:34:48.590Z,82.00
2019-01-19T03:37:59.304Z,81.90
2019-01-19T03:40:44.856Z,82.30
2019-01-19T03:44:07.932Z,82.30
2019-01-19T03:47:25.806Z,82.20
2019-01-19T03:50:36.952Z,82.30
2019-01-19T03:53:20.227Z,82.30
2019-01-19T03:56:07.634Z,82.30
2019-01-19T03:58:56.676Z,82.50
2019-01-19T04:02:00.557Z,82.60
2019-01-19T04:05:05.865Z,82.50
2019-01-19T04:08:16.915Z,82.50
2019-01-19T04:11:35.258Z,82.50
2019-01-19T04:14:44.054Z,82.60
2019-01-19T04:17:57.277Z,83.00
2019-01-19T04:21:05.718Z,83.10
2019-01-19T04:23:40.822Z,83.10
2019-01-19T04:27:02.662Z,82.90
2019-01-19T04:29:48.321Z,82.90
2019-01-19T04:32:20.653Z,83.00
2019-01-19T04:35:21.783Z,82.90
2019-01-19T04:37:55.323Z,83.00
2019-01-19T04:40:35.593Z,83.00
2019-01-19T04:43:06.406Z,83.20
2019-01-19T04:45:40.127Z,84.00
2019-01-19T04:48:11.579Z,83.20
2019-01-19T04:50:42.224Z,83.20
2019-01-19T04:53:15.983Z,83.20
2019-01-19T04:55:49.661Z,83.50
2019-01-19T04:58:20.190Z,83.80
2019-01-19T05:01:34.634Z,84.00
2019-01-19T05:04:07.928Z,83.80
2019-01-19T05:06:38.622Z,84.00
2019-01-19T05:09:10.082Z,84.10
2019-01-19T05:11:40.753Z,84.00
2019-01-19T05:14:11.961Z,84.00
2019-01-19T05:16:42.514Z,84.10
2019-01-19T05:19:13.770Z,84.10
2019-01-19T05:21:44.605Z,84.00
2019-01-19T05:24:15.347Z,84.00
2019-01-19T05:26:46.124Z,84.00
2019-01-19T05:29:16.766Z,84.00
2019-01-19T05:31:50.667Z,84.00
2019-01-19T05:34:33.197Z,84.00
2019-01-19T05:37:09.347Z,83.90
2019-01-19T05:39:40.064Z,84.00
2019-01-19T05:42:10.705Z,84.10
2019-01-19T05:44:41.458Z,84.30
2019-01-19T05:47:11.959Z,84.10
2019-01-19T05:50:23.933Z,84.10
2019-01-19T05:52:57.739Z,84.30
2019-01-19T05:55:34.659Z,84.10
2019-01-19T05:58:05.941Z,84.10
2019-01-19T06:00:39.496Z,84.30
2019-01-19T06:03:18.384Z,84.20
2019-01-19T06:05:49.147Z,84.10
2019-01-19T06:08:19.690Z,84.20
2019-01-19T06:10:50.757Z,84.00
2019-01-19T06:13:21.424Z,84.00
2019-01-19T06:15:52.665Z,84.10
2019-01-19T06:18:23.336Z,84.20
2019-01-19T06:20:54.026Z,84.30
2019-01-19T06:23:24.993Z,84.40
2019-01-19T06:26:39.318Z,84.30
2019-01-19T06:29:09.839Z,84.70
2019-01-19T06:31:40.915Z,84.90
2019-01-19T06:34:12.008Z,84.90
2019-01-19T06:36:55.430Z,84.90
2019-01-19T06:39:29.811Z,84.70
2019-01-19T06:42:00.457Z,84.70
2019-01-19T06:44:31.088Z,84.70
2019-01-19T06:47:01.685Z,84.80
2019-01-19T06:49:32.601Z,84.70
2019-01-19T06:52:03.249Z,84.60
2019-01-19T06:54:34.136Z,84.50
2019-01-19T06:57:07.973Z,84.40
2019-01-19T06:59:40.034Z,84.40
2019-01-19T07:02:12.014Z,84.30
2019-01-19T07:04:42.867Z,84.40
2019-01-19T07:07:26.938Z,84.40
2019-01-19T07:09:57.865Z,84.30
2019-01-19T07:12:28.344Z,84.30
2019-01-19T07:14:59.004Z,84.10
2019-01-19T07:17:49.728Z,84.10
2019-01-19T07:20:22.730Z,84.30
2019-01-19T07:22:53.378Z,84.30
2019-01-19T07:25:24.274Z,84.40
2019-01-19T07:27:54.818Z,84.30
2019-01-19T07:30:25.306Z,84.30
2019-01-19T07:33:20.115Z,84.30
2019-01-19T07:35:50.968Z,84.30
2019-01-19T07:38:21.789Z,84.30
2019-01-19T07:41:00.752Z,84.20
2019-01-19T07:43:31.420Z,84.10
2019-01-19T07:46:07.900Z,84.70
2019-01-19T07:49:09.084Z,84.10
2019-01-19T07:51:48.543Z,84.10
2019-01-19T07:54:24.534Z,84.30
2019-01-19T07:56:58.982Z,84.40
2019-01-19T07:59:34.353Z,84.40
2019-01-19T08:02:15.057Z,85.20
2019-01-19T08:04:48.676Z,84.20
2019-01-19T08:07:20.663Z,84.10
2019-01-19T08:09:51.456Z,84.40
2019-01-19T08:12:22.070Z,84.10
2019-01-19T08:14:52.695Z,84.00
2019-01-19T08:17:36.773Z,83.80
2019-01-19T08:20:11.474Z,83.80
2019-01-19T08:22:50.813Z,83.90
2019-01-19T08:25:26.088Z,83.50
2019-01-19T08:28:01.318Z,83.50
2019-01-19T08:30:32.589Z,83.70
2019-01-19T08:33:05.786Z,83.70
2019-01-19T08:35:43.182Z,84.00
2019-01-19T08:38:18.059Z,84.30
2019-01-19T08:40:57.525Z,84.10
2019-01-19T08:43:42.156Z,84.00
2019-01-19T08:46:19.179Z,83.90
2019-01-19T08:48:54.343Z,83.70
2019-01-19T08:51:25.197Z,83.80
2019-01-19T08:53:55.925Z,83.60
2019-01-19T08:56:26.716Z,83.60
2019-01-19T08:58:57.443Z,83.40
2019-01-19T09:01:28.211Z,83.60
2019-01-19T09:04:00.505Z,83.40
2019-01-19T09:06:31.559Z,83.40
2019-01-19T09:09:02.410Z,83.20
2019-01-19T09:11:35.229Z,82.90
2019-01-19T09:14:05.778Z,82.10
2019-01-19T09:16:40.602Z,81.80
2019-01-19T09:19:08.808Z,82.00
2019-01-19T09:21:39.774Z,81.90
2019-01-19T09:24:33.137Z,81.70
2019-01-19T09:27:04.777Z,81.20
2019-01-19T09:29:35.436Z,81.20
2019-01-19T09:32:06.389Z,80.90
2019-01-19T09:34:37.342Z,81.40
2019-01-19T09:37:08.103Z,81.50
2019-01-19T09:39:38.556Z,81.40
2019-01-19T09:42:12.656Z,81.90
2019-01-19T09:44:43.267Z,81.80
2019-01-19T09:47:14.064Z,82.00
2019-01-19T09:49:44.514Z,82.30
2019-01-19T09:52:21.177Z,81.50
2019-01-19T09:54:47.085Z,81.20
2019-01-19T09:57:17.554Z,80.80
2019-01-19T09:59:48.001Z,80.30
2019-01-19T10:02:18.423Z,79.00
2019-01-19T10:04:48.923Z,78.10
2019-01-19T10:07:19.372Z,78.40
2019-01-19T10:09:49.816Z,78.20
2019-01-19T10:12:20.282Z,77.90
2019-01-19T10:14:50.808Z,78.10
2019-01-19T10:17:22.105Z,76.60
2019-01-19T10:19:53.333Z,76.50
2019-01-19T10:22:23.813Z,76.90
2019-01-19T10:24:54.251Z,76.90
2019-01-19T10:27:24.683Z,76.10
2019-01-19T10:29:55.151Z,75.90
2019-01-19T10:32:25.893Z,75.80
2019-01-19T10:34:56.811Z,73.20
2019-01-19T10:37:27.348Z,72.60
2019-01-19T10:39:57.849Z,72.80
2019-01-19T10:42:28.389Z,71.10
2019-01-19T10:44:58.960Z,72.10
2019-01-19T10:47:29.620Z,72.90
2019-01-19T10:50:00.336Z,71.80
2019-01-19T10:52:31.030Z,70.10
2019-01-19T10:55:01.492Z,68.50
2019-01-19T10:57:31.979Z,68.90
2019-01-19T11:00:02.432Z,68.20
2019-01-19T11:02:33.015Z,66.30
2019-01-19T11:05:04.257Z,63.70
2019-01-19T11:07:35.224Z,61.90
2019-01-19T11:10:07.929Z,59.50
2019-01-19T11:12:38.440Z,59.30
2019-01-19T11:15:10.817Z,59.40
2019-01-19T11:17:41.288Z,58.30
2019-01-19T11:20:18.305Z,56.90
2019-01-19T11:22:48.761Z,56.20
2019-01-19T11:25:19.229Z,56.00
2019-01-19T11:27:49.709Z,56.20
2019-01-19T11:30:24.755Z,56.20
2019-01-19T11:32:55.225Z,56.60
2019-01-19T11:35:25.780Z,57.20
2019-01-19T11:37:56.316Z,57.90
2019-01-19T11:40:37.569Z,55.90
2019-01-19T11:43:09.923Z,57.40
2019-01-19T11:45:40.349Z,58.10
2019-01-19T11:48:11.119Z,56.60
2019-01-19T11:50:41.971Z,56.40
2019-01-19T11:53:12.424Z,55.60
2019-01-19T11:55:42.918Z,57.00
2019-01-19T11:58:13.608Z,55.30
2019-01-19T12:00:44.454Z,53.80
2019-01-19T12:03:15.253Z,54.80
2019-01-19T12:05:46.129Z,55.80
2019-01-19T12:08:19.719Z,54.20
2019-01-19T12:10:49.264Z,53.90
2019-01-19T12:13:19.848Z,52.40
2019-01-19T12:15:50.572Z,51.60
2019-01-19T12:18:21.037Z,52.50
2019-01-19T12:20:52.156Z,54.40
2019-01-19T12:23:22.632Z,54.80
2019-01-19T12:25:53.154Z,54.70
2019-01-19T12:28:23.631Z,53.30
2019-01-19T12:30:55.126Z,52.10
2019-01-19T12:33:25.904Z,52.40
2019-01-19T12:35:56.371Z,53.60
2019-01-19T12:38:27.219Z,52.20
2019-01-19T12:40:57.700Z,51.60
2019-01-19T12:43:28.425Z,51.80
2019-01-19T12:46:08.111Z,52.20
2019-01-19T12:48:39.529Z,50.40
2019-01-19T12:51:11.860Z,48.70
2019-01-19T12:53:42.620Z,48.90
2019-01-19T12:56:13.102Z,48.70
2019-01-19T12:58:43.584Z,48.40
2019-01-19T13:01:14.065Z,48.00
2019-01-19T13:03:44.885Z,47.50
2019-01-19T13:06:30.430Z,46.50
2019-01-19T13:09:04.951Z,45.90
2019-01-19T13:12:18.167Z,45.30
2019-01-19T13:15:08.384Z,44.30
2019-01-19T13:17:58.381Z,43.50
2019-01-19T13:21:14.213Z,43.80
2019-01-19T13:24:24.708Z,43.60
2019-01-19T13:27:22.971Z,43.70
2019-01-19T13:30:29.316Z,42.60
2019-01-19T13:33:38.317Z,41.90
2019-01-19T13:36:34.124Z,42.30
2019-01-19T13:39:34.237Z,42.00
2019-01-19T13:42:26.147Z,41.60
2019-01-19T13:45:33.651Z,41.90
2019-01-19T13:48:43.301Z,41.70
2019-01-19T13:51:48.012Z,43.30
2019-01-19T13:55:06.572Z,43.70
2019-01-19T13:58:33.867Z,45.20
2019-01-19T14:01:42.392Z,46.70
2019-01-19T14:04:42.084Z,47.80
2019-01-19T14:08:05.519Z,49.30
2019-01-19T14:11:11.104Z,50.40
2019-01-19T14:14:31.461Z,51.60
2019-01-19T14:17:40.543Z,52.00
2019-01-19T14:20:25.927Z,52.60
2019-01-19T14:23:37.327Z,52.70
2019-01-19T14:26:54.888Z,53.70
2019-01-19T14:30:02.510Z,54.60
2019-01-19T14:33:20.094Z,55.40
2019-01-19T14:36:06.840Z,55.90
2019-01-19T14:38:48.001Z,56.80
2019-01-19T14:42:18.712Z,57.20
2019-01-19T14:45:26.521Z,58.10
2019-01-19T14:48:23.921Z,59.60
2019-01-19T14:51:37.116Z,58.80
2019-01-19T14:54:50.821Z,58.90
2019-01-19T14:58:03.386Z,58.50
2019-01-19T15:01:24.061Z,59.10
2019-01-19T15:04:11.645Z,59.50
2019-01-19T15:07:21.064Z,60.10
2019-01-19T15:10:38.542Z,60.80
2019-01-19T15:13:47.198Z,61.00
2019-01-19T15:16:49.881Z,61.60
2019-01-19T15:20:17.177Z,62.10
2019-01-19T15:23:28.514Z,62.70
2019-01-19T15:26:32.569Z,62.40
2019-01-19T15:29:36.384Z,62.50
2019-01-19T15:32:35.225Z,63.20
2019-01-19T15:35:30.619Z,63.60
2019-01-19T15:38:35.914Z,63.80
2019-01-19T15:41:43.168Z,64.20
2019-01-19T15:44:57.633Z,64.10
2019-01-19T15:47:35.247Z,64.30
2019-01-19T15:50:44.101Z,64.70
2019-01-19T15:53:36.822Z,65.00
2019-01-19T15:56:57.550Z,65.70
2019-01-19T15:59:56.895Z,65.70
2019-01-19T16:03:20.824Z,66.40
2019-01-19T16:06:16.388Z,66.20
2019-01-19T16:09:05.805Z,66.90
2019-01-19T16:12:06.243Z,67.30
2019-01-19T16:15:32.918Z,68.10
2019-01-19T16:18:46.260Z,68.20
2019-01-19T16:22:19.241Z,68.50
2019-01-19T16:25:33.480Z,68.80
2019-01-19T16:28:30.864Z,69.30
2019-01-19T16:31:51.482Z,69.70
2019-01-19T16:35:05.005Z,69.70
2019-01-19T16:37:53.413Z,70.20
2019-01-19T16:41:26.148Z,70.30
2019-01-19T16:44:33.332Z,70.50
2019-01-19T16:47:31.839Z,72.10
2019-01-19T16:50:48.765Z,71.90
2019-01-19T16:53:25.018Z,71.50
2019-01-19T16:56:34.538Z,71.60
2019-01-19T16:59:57.210Z,72.30
2019-01-19T17:02:45.225Z,72.30
2019-01-19T17:05:50.588Z,72.00
2019-01-19T17:08:36.985Z,72.10
2019-01-19T17:11:47.013Z,72.30
2019-01-19T17:14:52.059Z,72.40
2019-01-19T17:18:03.007Z,72.20
2019-01-19T17:21:14.746Z,72.20
2019-01-19T17:23:53.946Z,72.30
2019-01-19T17:27:03.260Z,72.60
2019-01-19T17:30:26.641Z,72.80
2019-01-19T17:33:43.041Z,73.00
2019-01-19T17:36:34.541Z,73.10
2019-01-19T17:39:58.418Z,73.40
2019-01-19T17:43:31.034Z,73.40
2019-01-19T17:46:39.421Z,73.60
2019-01-19T17:49:35.740Z,73.90
2019-01-19T17:52:17.624Z,74.10
2019-01-19T17:55:23.481Z,74.20
2019-01-19T17:58:17.420Z,74.30
2019-01-19T18:01:47.357Z,74.30
2019-01-19T18:04:43.229Z,74.50
2019-01-19T18:07:24.124Z,74.80
2019-01-19T18:10:52.709Z,74.70
2019-01-19T18:13:52.928Z,74.70
2019-01-19T18:17:22.380Z,74.70
2019-01-19T18:20:33.945Z,74.80
2019-01-19T18:23:39.763Z,75.00
2019-01-19T18:26:37.497Z,75.10
2019-01-19T18:29:49.395Z,75.20
2019-01-19T18:32:41.448Z,75.40
2019-01-19T18:35:46.436Z,75.50
2019-01-19T18:39:00.673Z,75.80
2019-01-19T18:42:10.619Z,76.00
2019-01-19T18:45:07.512Z,76.00
2019-01-19T18:47:51.043Z,76.00
2019-01-19T18:50:48.360Z,76.00
2019-01-19T18:53:54.544Z,76.10
2019-01-19T18:56:52.015Z,76.30
2019-01-19T18:59:44.822Z,76.30
2019-01-19T19:03:12.208Z,76.50
2019-01-19T19:06:32.516Z,77.00
2019-01-19T19:09:49.135Z,77.20
2019-01-19T19:16:15.427Z,77.20
2019-01-19T19:22:53.182Z,77.10
2019-01-19T19:25:50.394Z,77.30
2019-01-19T19:28:56.933Z,77.20
2019-01-19T19:32:14.604Z,77.20
2019-01-19T19:35:25.006Z,77.60
2019-01-19T19:38:20.256Z,77.70
2019-01-19T19:41:27.529Z,77.60
2019-01-19T19:44:35.164Z,77.80
2019-01-19T19:47:29.802Z,77.80
2019-01-19T19:50:46.150Z,77.90
2019-01-19T19:53:19.045Z,77.90
2019-01-19T19:55:48.305Z,78.10
2019-01-19T19:58:19.130Z,78.20
2019-01-19T20:00:53.926Z,78.20
2019-01-19T20:03:24.965Z,78.20
2019-01-19T20:05:56.567Z,78.40
2019-01-19T20:08:27.273Z,78.40
2019-01-19T20:10:58.841Z,78.40
2019-01-19T20:13:29.819Z,78.50
2019-01-19T20:16:01.204Z,78.50
2019-01-19T20:18:33.838Z,78.60
2019-01-19T20:21:04.605Z,78.60
2019-01-19T20:23:35.861Z,78.70
2019-01-19T20:26:07.460Z,78.50
2019-01-19T20:28:41.000Z,79.40
2019-01-19T20:31:17.546Z,78.80
2019-01-19T20:33:48.125Z,78.90
2019-01-19T20:36:18.967Z,78.80
2019-01-19T20:38:49.464Z,79.00
2019-01-19T20:41:20.041Z,78.90
2019-01-19T20:43:51.093Z,78.80
2019-01-19T20:46:21.710Z,78.90
2019-01-19T20:48:52.770Z,78.90
2019-01-19T20:51:27.400Z,79.00
2019-01-19T20:53:58.184Z,79.00
2019-01-19T20:56:28.686Z,79.10
2019-01-19T20:59:02.709Z,79.00
2019-01-19T21:01:33.185Z,79.30
2019-01-19T21:04:04.301Z,79.40
2019-01-19T21:06:36.952Z,79.40
2019-01-19T21:09:12.065Z,79.70
2019-01-19T21:11:51.326Z,79.80
2019-01-19T21:14:23.476Z,79.60
2019-01-19T21:16:57.861Z,80.20
2019-01-19T21:19:28.851Z,80.50
2019-01-19T21:22:00.091Z,80.30
2019-01-19T21:24:37.354Z,80.60
2019-01-19T21:27:08.785Z,79.80
2019-01-19T21:29:39.628Z,79.40
2019-01-19T21:32:10.274Z,79.20
2019-01-19T21:34:40.752Z,79.40
2019-01-19T21:37:11.667Z,78.80
2019-01-19T21:39:42.248Z,78.90
2019-01-19T21:42:17.025Z,78.70
2019-01-19T21:44:47.548Z,79.40
2019-01-19T21:47:18.993Z,78.70
2019-01-19T21:49:50.351Z,78.40
2019-01-19T21:52:21.766Z,78.40
2019-01-19T21:54:55.498Z,78.40
2019-01-19T21:57:26.434Z,78.40
2019-01-19T21:59:56.945Z,78.20
2019-01-19T22:02:27.450Z,78.20
2019-01-19T22:04:58.722Z,78.50
2019-01-19T22:07:29.469Z,78.40
2019-01-19T22:09:59.929Z,78.40
2019-01-19T22:12:30.464Z,78.40
2019-01-19T22:15:01.256Z,78.10
2019-01-19T22:17:39.337Z,78.20
2019-01-19T22:20:05.220Z,78.20
2019-01-19T22:22:36.008Z,78.20
2019-01-19T22:25:10.078Z,78.10
2019-01-19T22:27:43.508Z,78.10
2019-01-19T22:30:15.760Z,78.10
2019-01-19T22:32:47.856Z,78.10
2019-01-19T22:35:19.256Z,78.40
2019-01-19T22:37:50.176Z,78.20
2019-01-19T22:40:23.897Z,78.40
2019-01-19T22:42:57.447Z,78.40
2019-01-19T22:45:28.732Z,78.50
2019-01-19T22:47:59.571Z,78.60
2019-01-19T22:50:30.382Z,78.80
2019-01-19T22:53:01.301Z,78.80
2019-01-19T22:55:31.752Z,79.00
2019-01-19T22:58:05.952Z,78.80
2019-01-19T23:01:08.819Z,79.40
2019-01-19T23:03:40.504Z,79.70
2019-01-19T23:06:11.057Z,79.00
2019-01-19T23:08:45.078Z,78.90
2019-01-19T23:11:16.401Z,78.80
2019-01-19T23:13:47.556Z,78.80
2019-01-19T23:16:18.063Z,78.90
2019-01-19T23:18:48.577Z,79.10
2019-01-19T23:21:19.085Z,79.30
2019-01-19T23:23:50.365Z,79.00
2019-01-19T23:26:21.823Z,79.90
2019-01-19T23:28:54.241Z,79.50
2019-01-19T23:31:25.586Z,79.30
2019-01-19T23:33:56.978Z,79.60
2019-01-19T23:36:28.044Z,79.70
2019-01-19T23:38:58.537Z,79.80
2019-01-19T23:41:33.367Z,79.90
2019-01-19T23:44:05.073Z,79.60
2019-01-19T23:46:35.932Z,79.50
2019-01-19T23:49:07.635Z,79.80
2019-01-19T23:51:39.156Z,79.40
2019-01-19T23:54:10.470Z,79.40
2019-01-19T23:56:41.930Z,79.30
2019-01-19T23:59:13.619Z,79.00
